createdAt,value
2019-05-10T00:00:27.704Z,102587.48
2019-05-10T00:03:16.667Z,102627.86
2019-05-10T00:06:05.811Z,102682.66
2019-05-10T00:08:47.802Z,102761.77
2019-05-10T00:11:30.021Z,102897.23
2019-05-10T00:14:19.834Z,103062.38
2019-05-10T00:16:53.311Z,103252.36
2019-05-10T00:19:24.928Z,103342.95
2019-05-10T00:21:56.126Z,103499.02
2019-05-10T00:24:27.376Z,103641.94
2019-05-10T00:26:58.689Z,103747.17
2019-05-10T00:29:30.293Z,103680.37
2019-05-10T00:32:01.778Z,103515.64
2019-05-10T00:34:33.480Z,103495.72
2019-05-10T00:37:04.883Z,103393.46
2019-05-10T00:39:36.506Z,103238.47
2019-05-10T00:42:07.736Z,103143.91
2019-05-10T00:44:39.973Z,103072.62
2019-05-10T00:47:11.168Z,103000.23
2019-05-10T00:49:42.864Z,103018.61
2019-05-10T00:52:14.108Z,103052.83
2019-05-10T00:54:45.371Z,103027.18
2019-05-10T00:57:16.856Z,103001.42
2019-05-10T00:59:48.061Z,102912.02
2019-05-10T01:02:19.402Z,102869.78
2019-05-10T01:04:50.693Z,102805.98
2019-05-10T01:07:22.408Z,102828.56
2019-05-10T01:09:54.031Z,102819.08
2019-05-10T01:12:25.223Z,102906.12
2019-05-10T01:14:56.497Z,102898.80
2019-05-10T01:17:27.733Z,102943.89
2019-05-10T01:19:58.985Z,102941.08
2019-05-10T01:22:31.717Z,102914.52
2019-05-10T01:25:02.915Z,102902.33
2019-05-10T01:27:34.145Z,102861.85
2019-05-10T01:30:06.512Z,102947.69
2019-05-10T01:32:37.675Z,103056.92
2019-05-10T01:35:09.077Z,103212.86
2019-05-10T01:37:41.536Z,103394.56
2019-05-10T01:40:13.407Z,103507.44
2019-05-10T01:42:44.603Z,103613.56
2019-05-10T01:45:16.185Z,103672.36
2019-05-10T01:47:57.121Z,103848.73
2019-05-10T01:50:28.938Z,103912.82
2019-05-10T01:53:04.413Z,104090.13
2019-05-10T01:55:50.946Z,104214.59
2019-05-10T01:58:10.325Z,104349.34
2019-05-10T02:00:41.499Z,104510.62
2019-05-10T02:03:12.856Z,104661.31
2019-05-10T02:05:44.339Z,104724.16
2019-05-10T02:08:15.580Z,104647.55
2019-05-10T02:10:46.801Z,104493.35
2019-05-10T02:13:18.008Z,104444.50
2019-05-10T02:15:49.787Z,104426.16
2019-05-10T02:18:21.041Z,104374.56
2019-05-10T02:20:52.328Z,104422.53
2019-05-10T02:23:23.633Z,104464.25
2019-05-10T02:26:08.432Z,104464.31
2019-05-10T02:28:27.656Z,104362.16
2019-05-10T02:30:58.980Z,104205.69
2019-05-10T02:33:30.321Z,104259.84
2019-05-10T02:36:01.527Z,104422.87
2019-05-10T02:38:33.233Z,104568.75
2019-05-10T02:41:04.538Z,104753.17
2019-05-10T02:43:35.756Z,104994.17
2019-05-10T02:46:07.065Z,105223.27
2019-05-10T02:48:38.312Z,105372.58
2019-05-10T02:51:09.539Z,105439.34
2019-05-10T02:53:40.902Z,105487.01
2019-05-10T02:56:29.882Z,105501.80
2019-05-10T02:58:48.668Z,105534.50
2019-05-10T03:01:23.392Z,105579.92
2019-05-10T03:03:56.134Z,105576.72
2019-05-10T03:06:29.184Z,105571.52
2019-05-10T03:09:04.609Z,105502.33
2019-05-10T03:11:48.306Z,105457.28
2019-05-10T03:14:19.955Z,105482.02
2019-05-10T03:16:52.923Z,105610.91
2019-05-10T03:19:24.086Z,105764.51
2019-05-10T03:22:25.650Z,105939.00
2019-05-10T03:25:01.958Z,106050.56
2019-05-10T03:27:33.884Z,106246.84
2019-05-10T03:30:05.496Z,106445.05
2019-05-10T03:32:36.779Z,106588.47
2019-05-10T03:35:09.261Z,106710.16
2019-05-10T03:37:40.993Z,106783.94
2019-05-10T03:40:12.305Z,106799.25
2019-05-10T03:42:43.509Z,106758.30
2019-05-10T03:45:14.864Z,106722.31
2019-05-10T03:47:47.315Z,106701.05
2019-05-10T03:50:19.030Z,106611.30
2019-05-10T03:52:52.355Z,106577.36
2019-05-10T03:55:23.112Z,106521.23
2019-05-10T03:57:54.339Z,106491.90
2019-05-10T04:00:25.853Z,106514.97
2019-05-10T04:02:57.213Z,106518.76
2019-05-10T04:05:28.841Z,106461.34
2019-05-10T04:08:00.097Z,106439.44
2019-05-10T04:10:31.406Z,106425.84
2019-05-10T04:13:02.915Z,106359.02
2019-05-10T04:15:35.950Z,106297.92
2019-05-10T04:18:07.216Z,106270.80
2019-05-10T04:20:41.123Z,106335.43
2019-05-10T04:23:12.426Z,106396.27
2019-05-10T04:25:43.739Z,106488.47
2019-05-10T04:28:14.952Z,106578.72
2019-05-10T04:30:46.792Z,106715.32
2019-05-10T04:33:18.009Z,106830.36
2019-05-10T04:35:49.259Z,107042.61
2019-05-10T04:38:20.540Z,107165.84
2019-05-10T04:40:51.749Z,107214.65
2019-05-10T04:43:23.098Z,107271.62
2019-05-10T04:45:54.321Z,107346.14
2019-05-10T04:48:25.468Z,107360.83
2019-05-10T04:50:58.029Z,107293.40
2019-05-10T04:53:29.376Z,107183.04
2019-05-10T04:56:00.750Z,107034.55
2019-05-10T04:58:32.109Z,106765.13
2019-05-10T05:01:03.451Z,106543.84
2019-05-10T05:03:35.042Z,106390.75
2019-05-10T05:06:06.328Z,106252.38
2019-05-10T05:08:38.574Z,106010.78
2019-05-10T05:11:10.586Z,105774.52
2019-05-10T05:13:42.554Z,105527.55
2019-05-10T05:16:13.893Z,105398.09
2019-05-10T05:18:45.682Z,105321.20
2019-05-10T05:21:17.128Z,105191.70
2019-05-10T05:23:49.038Z,104964.64
2019-05-10T05:26:20.548Z,104838.15
2019-05-10T05:28:52.490Z,104716.05
2019-05-10T05:31:24.232Z,104665.33
2019-05-10T05:33:59.183Z,104700.30
2019-05-10T05:36:29.660Z,104787.75
2019-05-10T05:39:01.189Z,104819.55
2019-05-10T05:41:47.841Z,104882.53
2019-05-10T05:44:06.888Z,104842.53
2019-05-10T05:46:38.176Z,104768.34
2019-05-10T05:49:09.731Z,104837.55
2019-05-10T05:51:41.298Z,105009.78
2019-05-10T05:54:15.266Z,105310.67
2019-05-10T05:56:50.858Z,105528.35
2019-05-10T05:59:23.632Z,105603.61
2019-05-10T06:01:54.319Z,105403.84
2019-05-10T06:04:25.501Z,105195.77
2019-05-10T06:06:59.183Z,105072.16
2019-05-10T06:09:31.950Z,104970.92
2019-05-10T06:12:07.377Z,104926.54
2019-05-10T06:14:36.675Z,104841.81
2019-05-10T06:17:08.123Z,104675.45
2019-05-10T06:19:39.482Z,104701.50
2019-05-10T06:22:10.751Z,104829.53
2019-05-10T06:24:46.628Z,104913.45
2019-05-10T06:27:17.543Z,105211.78
2019-05-10T06:29:49.404Z,105651.77
2019-05-10T06:32:22.059Z,106246.09
2019-05-10T06:34:55.092Z,106693.48
2019-05-10T06:37:26.651Z,107051.75
2019-05-10T06:40:01.254Z,107311.13
2019-05-10T06:42:34.722Z,107908.27
2019-05-10T06:45:14.381Z,108469.40
2019-05-10T06:47:41.899Z,108932.31
2019-05-10T06:50:14.022Z,109327.83
2019-05-10T06:52:45.424Z,109720.90
2019-05-10T06:55:17.113Z,110281.45
2019-05-10T06:57:50.376Z,110756.73
2019-05-10T07:00:22.345Z,111085.51
2019-05-10T07:02:53.688Z,111494.85
2019-05-10T07:05:24.964Z,111774.11
2019-05-10T07:08:00.006Z,112158.94
2019-05-10T07:10:33.643Z,112406.34
2019-05-10T07:13:03.526Z,112628.37
2019-05-10T07:15:41.527Z,112642.98
2019-05-10T07:18:11.631Z,112686.97
2019-05-10T07:20:43.593Z,112734.54
2019-05-10T07:23:14.811Z,112676.36
2019-05-10T07:25:46.745Z,112706.55
2019-05-10T07:28:18.253Z,112786.12
2019-05-10T07:30:49.449Z,112751.94
2019-05-10T07:33:20.641Z,112558.40
2019-05-10T07:35:51.887Z,112500.98
2019-05-10T07:38:31.000Z,112561.57
2019-05-10T07:40:58.424Z,112577.13
2019-05-10T07:43:29.693Z,112541.55
2019-05-10T07:46:06.244Z,112513.13
2019-05-10T07:48:34.157Z,112525.92
2019-05-10T07:51:05.747Z,112405.30
2019-05-10T07:54:04.518Z,112700.25
2019-05-10T07:56:33.571Z,112155.88
2019-05-10T07:59:04.794Z,112137.19
2019-05-10T08:01:36.056Z,112108.91
2019-05-10T08:04:09.016Z,112029.81
2019-05-10T08:06:52.029Z,111935.11
2019-05-10T08:09:21.762Z,111767.65
2019-05-10T08:11:54.048Z,111634.70
2019-05-10T08:14:28.349Z,111704.83
2019-05-10T08:17:05.835Z,111765.13
2019-05-10T08:19:37.659Z,111154.97
2019-05-10T08:22:09.201Z,110949.53
2019-05-10T08:24:44.531Z,110626.80
2019-05-10T08:27:14.826Z,110250.55
2019-05-10T08:29:52.942Z,109495.69
2019-05-10T08:32:25.402Z,108598.13
2019-05-10T08:34:55.856Z,108118.03
2019-05-10T08:37:33.508Z,107544.83
2019-05-10T08:39:59.763Z,106848.10
2019-05-10T08:42:43.739Z,106127.05
2019-05-10T08:45:08.632Z,105579.14
2019-05-10T08:47:42.450Z,105106.15
2019-05-10T08:50:28.785Z,104686.38
2019-05-10T08:52:47.719Z,104362.18
2019-05-10T08:55:19.351Z,104276.16
2019-05-10T08:57:52.536Z,104271.51
2019-05-10T09:00:41.739Z,104066.63
2019-05-10T09:03:09.404Z,103328.08
2019-05-10T09:05:40.045Z,103082.12
2019-05-10T09:08:19.571Z,102737.42
2019-05-10T09:10:45.014Z,102562.07
2019-05-10T09:13:16.631Z,102535.42
2019-05-10T09:15:52.402Z,102891.56
2019-05-10T09:18:23.120Z,102704.20
2019-05-10T09:21:00.328Z,102317.77
2019-05-10T09:23:28.242Z,102150.00
2019-05-10T09:26:03.647Z,102135.66
2019-05-10T09:28:33.533Z,101995.33
2019-05-10T09:31:17.373Z,101890.09
2019-05-10T09:33:43.403Z,101860.92
2019-05-10T09:36:12.425Z,101764.52
2019-05-10T09:38:46.393Z,101673.22
2019-05-10T09:41:17.209Z,101611.67
2019-05-10T09:45:53.207Z,101790.67
2019-05-10T09:48:24.843Z,101819.98
2019-05-10T09:50:58.547Z,101733.59
2019-05-10T09:53:30.509Z,101520.30
2019-05-10T09:56:03.399Z,101366.11
2019-05-10T09:58:38.491Z,101156.31
2019-05-10T10:01:14.823Z,101089.06
2019-05-10T10:03:44.985Z,100979.66
2019-05-10T10:06:16.990Z,100862.95
2019-05-10T10:08:53.200Z,100814.98
2019-05-10T10:11:21.849Z,100812.73
2019-05-10T10:13:59.161Z,100786.77
2019-05-10T10:16:28.169Z,100763.01
2019-05-10T10:19:01.245Z,100756.88
2019-05-10T10:21:35.466Z,100773.00
2019-05-10T10:24:15.572Z,100818.98
2019-05-10T10:26:48.132Z,100855.02
2019-05-10T10:29:19.679Z,100830.83
2019-05-10T10:31:55.943Z,100900.69
2019-05-10T10:34:27.254Z,100977.83
2019-05-10T10:36:58.778Z,101066.30
2019-05-10T10:39:30.158Z,101172.17
2019-05-10T10:42:02.494Z,101213.89
2019-05-10T10:44:37.110Z,101254.07
2019-05-10T10:47:08.391Z,101250.79
2019-05-10T10:49:40.283Z,101232.11
2019-05-10T10:52:13.500Z,101193.80
2019-05-10T10:54:48.055Z,101248.99
2019-05-10T10:57:19.528Z,101332.86
2019-05-10T10:59:52.195Z,101424.06
2019-05-10T11:02:32.812Z,101500.05
2019-05-10T11:05:00.424Z,101624.92
2019-05-10T11:10:17.212Z,101907.37
2019-05-10T11:12:42.686Z,101938.41
2019-05-10T11:15:16.405Z,102084.00
2019-05-10T11:17:50.542Z,102247.29
2019-05-10T11:20:23.932Z,102339.59
2019-05-10T11:23:01.532Z,102266.17
2019-05-10T11:25:32.992Z,102265.09
2019-05-10T11:28:09.067Z,102123.35
2019-05-10T11:30:45.739Z,102033.55
2019-05-10T11:33:27.229Z,101927.32
2019-05-10T11:35:51.479Z,101666.33
2019-05-10T11:38:23.036Z,101541.05
2019-05-10T11:40:55.778Z,101432.73
2019-05-10T11:43:27.213Z,101327.53
2019-05-10T11:46:00.951Z,101253.91
2019-05-10T11:48:37.394Z,101189.59
2019-05-10T11:51:12.517Z,101156.19
2019-05-10T11:53:41.482Z,101221.73
2019-05-10T11:56:14.338Z,101215.77
2019-05-10T11:58:54.208Z,101239.71
2019-05-10T12:01:22.311Z,101250.27
2019-05-10T12:03:56.747Z,101243.59
2019-05-10T12:06:28.663Z,101144.98
2019-05-10T12:10:42.931Z,101060.97
2019-05-10T12:13:19.514Z,101028.73
2019-05-10T12:15:45.382Z,101014.28
2019-05-10T12:18:26.532Z,100929.01
2019-05-10T12:21:04.126Z,100855.34
2019-05-10T12:23:31.295Z,100839.08
2019-05-10T12:27:12.842Z,100789.63
2019-05-10T12:28:35.850Z,100749.45
2019-05-10T12:31:12.280Z,100733.69
2019-05-10T12:33:45.396Z,100721.95
2019-05-10T12:36:25.442Z,100727.41
2019-05-10T12:38:56.687Z,100725.83
2019-05-10T12:41:31.491Z,100724.39
2019-05-10T12:44:04.137Z,100724.24
2019-05-10T12:46:41.898Z,100709.06
2019-05-10T12:49:18.196Z,100733.39
2019-05-10T12:51:51.375Z,100694.92
2019-05-10T12:54:23.721Z,100697.83
2019-05-10T12:56:58.631Z,100717.84
2019-05-10T12:59:34.816Z,100699.79
2019-05-10T13:02:04.425Z,100706.75
2019-05-10T13:04:40.953Z,100703.84
2019-05-10T13:07:11.220Z,100699.94
2019-05-10T13:09:42.826Z,100704.02
2019-05-10T13:12:14.268Z,100707.63
2019-05-10T13:14:52.245Z,100720.67
2019-05-10T13:17:22.350Z,100734.78
2019-05-10T13:19:58.429Z,100766.88
2019-05-10T13:22:37.127Z,100764.63
2019-05-10T13:25:03.132Z,100761.33
2019-05-10T13:27:34.587Z,100792.09
2019-05-10T13:30:11.353Z,100785.91
2019-05-10T13:32:52.902Z,100809.56
2019-05-10T13:35:32.866Z,100800.88
2019-05-10T13:38:06.453Z,100813.71
2019-05-10T13:40:45.651Z,100815.09
2019-05-10T13:43:17.219Z,100815.79
2019-05-10T13:45:47.787Z,100819.50
2019-05-10T13:48:19.180Z,100826.79
2019-05-10T13:50:50.978Z,100836.16
2019-05-10T13:53:23.281Z,100842.58
2019-05-10T13:55:55.021Z,100845.73
2019-05-10T13:58:26.401Z,100840.35
2019-05-10T14:00:57.655Z,100825.44
2019-05-10T14:03:43.276Z,100832.52
2019-05-10T14:06:02.650Z,100821.65
2019-05-10T14:08:36.908Z,100827.81
2019-05-10T14:11:10.303Z,100839.11
2019-05-10T14:13:44.275Z,100854.47
2019-05-10T14:16:19.616Z,100884.34
2019-05-10T14:18:52.128Z,100890.98
2019-05-10T14:21:23.767Z,100911.20
2019-05-10T14:23:56.929Z,100890.06
2019-05-10T14:26:28.643Z,100891.89
2019-05-10T14:29:00.736Z,100888.76
2019-05-10T14:31:32.185Z,100924.91
2019-05-10T14:34:19.015Z,100919.86
2019-05-10T14:36:41.151Z,100919.46
2019-05-10T14:39:10.964Z,100943.82
2019-05-10T14:41:45.334Z,100932.92
2019-05-10T14:44:17.117Z,100931.89
2019-05-10T14:46:49.189Z,100930.47
2019-05-10T14:49:20.810Z,100944.72
2019-05-10T14:51:58.824Z,100971.98
2019-05-10T14:54:42.275Z,101011.44
2019-05-10T14:57:00.915Z,101047.00
2019-05-10T14:59:32.464Z,101044.80
2019-05-10T15:02:04.144Z,101044.19
2019-05-10T15:04:46.426Z,101039.33
2019-05-10T15:07:14.163Z,101040.03
2019-05-10T15:09:43.378Z,101032.97
2019-05-10T15:12:35.516Z,101032.08
2019-05-10T15:15:09.435Z,101058.31
2019-05-10T15:17:40.844Z,101044.11
2019-05-10T15:20:12.957Z,101016.53
2019-05-10T15:22:44.589Z,101018.53
2019-05-10T15:25:16.138Z,101019.98
2019-05-10T15:27:54.593Z,101035.05
2019-05-10T15:30:24.054Z,101045.96
2019-05-10T15:32:55.905Z,101027.88
2019-05-10T15:35:31.767Z,100951.23
2019-05-10T15:38:10.228Z,100920.98
2019-05-10T15:40:44.365Z,100910.27
2019-05-10T15:43:19.004Z,100906.94
2019-05-10T15:45:52.760Z,100913.19
2019-05-10T15:48:26.139Z,100915.09
2019-05-10T15:50:58.055Z,100924.64
2019-05-10T15:53:29.341Z,100933.94
2019-05-10T15:56:04.075Z,100943.41
2019-05-10T15:58:42.068Z,100942.83
2019-05-10T16:01:09.609Z,100940.97
2019-05-10T16:03:42.805Z,100942.06
2019-05-10T16:06:18.767Z,100938.86
2019-05-10T16:08:50.147Z,100928.97
2019-05-10T16:11:21.557Z,100942.09
2019-05-10T16:13:54.867Z,100925.39
2019-05-10T16:16:30.359Z,100926.20
2019-05-10T16:19:01.208Z,100932.86
2019-05-10T16:21:53.984Z,100948.36
2019-05-10T16:24:26.122Z,100953.05
2019-05-10T16:27:01.525Z,100954.72
2019-05-10T16:29:40.245Z,100949.23
2019-05-10T16:32:09.918Z,100948.52
2019-05-10T16:34:41.519Z,100961.30
2019-05-10T16:37:16.251Z,100967.89
2019-05-10T16:39:48.061Z,100972.05
2019-05-10T16:42:19.423Z,100984.83
2019-05-10T16:44:50.642Z,100989.21
2019-05-10T16:47:23.075Z,100990.94
2019-05-10T16:49:55.242Z,100999.87
2019-05-10T16:52:28.214Z,101003.39
2019-05-10T16:55:03.498Z,101011.66
2019-05-10T16:57:37.542Z,101015.00
2019-05-10T17:00:08.135Z,100998.98
2019-05-10T17:02:41.940Z,100978.77
2019-05-10T17:05:15.151Z,100968.06
2019-05-10T17:07:45.636Z,100958.00
2019-05-10T17:10:17.150Z,100968.19
2019-05-10T17:12:48.331Z,100978.80
2019-05-10T17:15:20.011Z,100989.09
2019-05-10T17:17:51.431Z,101003.42
2019-05-10T17:20:22.936Z,101012.09
2019-05-10T17:22:54.738Z,101026.34
2019-05-10T17:25:26.182Z,101026.41
2019-05-10T17:28:00.621Z,101038.03
2019-05-10T17:30:32.029Z,101025.83
2019-05-10T17:33:04.474Z,101040.19
2019-05-10T17:35:41.470Z,101042.62
2019-05-10T17:38:14.145Z,101044.23
2019-05-10T17:40:47.408Z,101039.42
2019-05-10T17:43:20.926Z,101034.50
2019-05-10T17:45:48.238Z,101044.89
2019-05-10T17:48:20.046Z,101028.87
2019-05-10T17:50:51.341Z,101019.56
2019-05-10T17:53:24.260Z,101029.03
2019-05-10T17:55:59.373Z,101032.07
2019-05-10T17:58:34.010Z,101044.81
2019-05-10T18:01:01.328Z,101045.77
2019-05-10T18:03:32.644Z,101050.17
2019-05-10T18:06:03.964Z,101051.75
2019-05-10T18:08:35.181Z,101075.53
2019-05-10T18:11:06.428Z,101087.66
2019-05-10T18:13:40.934Z,101080.02
2019-05-10T18:16:11.052Z,101084.57
2019-05-10T18:18:46.900Z,101086.66
2019-05-10T18:21:21.758Z,101087.86
2019-05-10T18:23:52.819Z,101089.73
2019-05-10T18:26:24.031Z,101080.41
2019-05-10T18:28:55.365Z,101079.41
2019-05-10T18:31:27.104Z,101083.23
2019-05-10T18:33:58.539Z,101085.09
2019-05-10T18:36:50.610Z,101082.70
2019-05-10T18:39:03.304Z,101089.45
2019-05-10T18:41:34.508Z,101094.20
2019-05-10T18:44:07.537Z,101104.82
2019-05-10T18:46:38.767Z,101092.42
2019-05-10T18:49:10.449Z,101095.69
2019-05-10T18:51:42.212Z,101110.66
2019-05-10T18:54:13.521Z,101100.11
2019-05-10T18:56:45.897Z,101114.64
2019-05-10T18:59:17.457Z,101112.20
2019-05-10T19:01:48.722Z,101116.13
2019-05-10T19:04:20.290Z,101115.02
2019-05-10T19:07:01.334Z,101110.66
2019-05-10T19:09:24.607Z,101119.55
2019-05-10T19:11:56.095Z,101121.92
2019-05-10T19:14:29.829Z,101128.52
2019-05-10T19:17:03.795Z,101132.61
2019-05-10T19:19:37.450Z,101145.08
2019-05-10T19:22:08.931Z,101145.37
2019-05-10T19:24:40.671Z,101148.36
2019-05-10T19:27:12.524Z,101160.91
2019-05-10T19:29:46.108Z,101168.87
2019-05-10T19:32:20.254Z,101176.88
2019-05-10T19:34:57.088Z,101185.90
2019-05-10T19:37:31.314Z,101185.90
2019-05-10T19:39:59.910Z,101190.78
2019-05-10T19:42:32.039Z,101204.77
2019-05-10T19:45:04.414Z,101202.09
2019-05-10T19:47:37.277Z,101206.43
2019-05-10T19:50:09.134Z,101210.52
2019-05-10T19:52:40.451Z,101222.75
2019-05-10T19:55:19.270Z,101228.03
2019-05-10T19:57:49.575Z,101231.66
2019-05-10T20:00:19.208Z,101236.45
2019-05-10T20:02:50.436Z,101238.10
2019-05-10T20:05:26.143Z,101241.34
2019-05-10T20:07:57.876Z,101244.09
2019-05-10T20:10:29.121Z,101254.33
2019-05-10T20:13:00.308Z,101261.77
2019-05-10T20:15:31.516Z,101270.83
2019-05-10T20:18:02.868Z,101286.08
2019-05-10T20:20:34.736Z,101287.31
2019-05-10T20:23:06.660Z,101303.73
2019-05-10T20:25:37.841Z,101317.02
2019-05-10T20:28:09.291Z,101318.62
2019-05-10T20:30:42.533Z,101311.37
2019-05-10T20:33:34.260Z,101311.37
2019-05-10T20:36:05.551Z,101311.00
2019-05-10T20:38:36.829Z,101298.63
2019-05-10T20:41:08.030Z,101304.19
2019-05-10T20:43:39.324Z,101297.10
2019-05-10T20:46:11.585Z,101307.25
2019-05-10T20:48:42.960Z,101309.06
2019-05-10T20:51:14.723Z,101306.03
2019-05-10T20:53:48.814Z,101317.53
2019-05-10T20:56:20.046Z,101323.54
2019-05-10T20:58:51.465Z,101336.13
2019-05-10T21:01:22.870Z,101362.07
2019-05-10T21:03:54.076Z,101373.13
2019-05-10T21:06:26.360Z,101369.45
2019-05-10T21:08:57.631Z,101382.06
2019-05-10T21:11:30.721Z,101394.23
2019-05-10T21:14:02.680Z,101385.53
2019-05-10T21:16:33.969Z,101382.06
2019-05-10T21:19:05.217Z,101384.65
2019-05-10T21:21:36.538Z,101389.99
2019-05-10T21:24:08.255Z,101390.25
2019-05-10T21:26:39.538Z,101389.23
2019-05-10T21:29:11.344Z,101391.80
2019-05-10T21:31:43.390Z,101391.27
2019-05-10T21:34:15.143Z,101397.67
2019-05-10T21:36:46.857Z,101400.88
2019-05-10T21:39:18.344Z,101403.87
2019-05-10T21:41:51.196Z,101408.25
2019-05-10T21:44:22.816Z,101414.71
2019-05-10T21:46:54.151Z,101421.19
2019-05-10T21:49:25.490Z,101412.25
2019-05-10T21:51:58.222Z,101417.55
2019-05-10T21:54:29.523Z,101413.08
2019-05-10T21:57:00.856Z,101406.91
2019-05-10T21:59:32.208Z,101415.46
2019-05-10T22:02:03.623Z,101414.28
2019-05-10T22:04:34.969Z,101413.60
2019-05-10T22:07:07.442Z,101414.41
2019-05-10T22:09:38.791Z,101412.25
2019-05-10T22:12:10.139Z,101417.98
2019-05-10T22:14:41.423Z,101424.83
2019-05-10T22:17:12.736Z,101413.59
2019-05-10T22:19:44.165Z,101421.34
2019-05-10T22:22:16.445Z,101421.13
2019-05-10T22:24:47.836Z,101428.36
2019-05-10T22:27:19.081Z,101425.55
2019-05-10T22:29:50.504Z,101430.63
2019-05-10T22:32:21.706Z,101448.06
2019-05-10T22:34:53.593Z,101434.38
2019-05-10T22:37:24.899Z,101421.88
2019-05-10T22:39:56.776Z,101416.75
2019-05-10T22:42:30.430Z,101438.89
2019-05-10T22:45:01.829Z,101443.30
2019-05-10T22:48:01.897Z,101460.13
2019-05-10T22:50:33.211Z,101466.13
2019-05-10T22:53:04.421Z,101466.80
2019-05-10T22:55:35.792Z,101475.19
2019-05-10T22:58:07.074Z,101477.28
2019-05-10T23:00:38.970Z,101481.19
2019-05-10T23:03:10.173Z,101491.88
2019-05-10T23:05:41.418Z,101496.78
2019-05-10T23:08:12.650Z,101499.59
2019-05-10T23:10:43.878Z,101501.08
2019-05-10T23:13:16.703Z,101501.08
2019-05-10T23:15:48.210Z,101495.03
2019-05-10T23:18:22.232Z,101494.50
2019-05-10T23:20:53.435Z,101490.25
2019-05-10T23:23:25.072Z,101496.09
2019-05-10T23:25:56.337Z,101497.09
2019-05-10T23:28:28.055Z,101505.21
2019-05-10T23:30:59.239Z,101501.87
2019-05-10T23:33:30.484Z,101505.83
2019-05-10T23:36:02.234Z,101508.77
2019-05-10T23:38:33.406Z,101509.54
2019-05-10T23:41:04.556Z,101507.66
2019-05-10T23:43:36.361Z,101509.34
2019-05-10T23:46:11.451Z,101528.83
2019-05-10T23:48:42.664Z,101518.89
2019-05-10T23:51:13.885Z,101520.31
2019-05-10T23:53:45.165Z,101538.17
2019-05-10T23:56:16.613Z,101535.19
2019-05-10T23:58:47.800Z,101550.89
